Time;durP1;ratioP1;P1;durP2;ratioP2;P2;SDS_P1;SDS_P2;PMS_P1;PMS_P2;Temp;Humidity;BMP_temperature;BMP_pressure;BME280_temperature;BME280_humidity;BME280_pressure;Samples;Min_cycle;Max_cycle;Signal;HPM_P1;HPM_P2
2022/04/14 00:46:05;;;;;;;5.60;5.03;;;9.10;99.90;;;;;;7365449;19;20368;-82
2022/04/14 00:48:36;;;;;;;6.50;4.95;;;9.10;99.90;;;;;;7341963;19;20316;-82
2022/04/14 00:51:09;;;;;;;6.35;5.15;;;9.00;99.90;;;;;;7347144;19;20349;-82
2022/04/14 00:53:48;;;;;;;5.85;5.10;;;9.10;99.90;;;;;;7336968;19;20363;-82
2022/04/14 00:56:45;;;;;;;5.43;4.88;;;9.10;99.90;;;;;;7333619;19;20344;-82
2022/04/14 00:59:41;;;;;;;6.32;5.05;;;9.10;99.90;;;;;;7204474;19;2004299;-82
2022/04/14 01:02:22;;;;;;;6.75;5.00;;;9.10;99.90;;;;;;7235945;19;2004359;-82
2022/04/14 01:04:58;;;;;;;6.00;5.10;;;9.10;99.90;;;;;;7238858;19;2004201;-82
2022/04/14 01:07:33;;;;;;;7.47;5.47;;;9.30;99.90;;;;;;7377188;19;20345;-82
2022/04/14 01:10:20;;;;;;;6.53;5.30;;;8.90;99.90;;;;;;7281473;19;2024371;-82
2022/04/14 02:23:03;;;;;;;7.47;5.97;;;8.90;99.90;;;;;;7376855;19;20433;-80
2022/04/14 02:25:35;;;;;;;7.18;5.78;;;8.90;99.90;;;;;;7349751;19;20865;-80
2022/04/14 02:28:03;;;;;;;8.32;5.75;;;8.90;99.90;;;;;;7383851;19;20713;-80
2022/04/14 02:30:33;;;;;;;7.60;5.97;;;8.80;99.90;;;;;;7382791;19;20325;-80
2022/04/14 02:33:02;;;;;;;6.72;5.93;;;8.90;99.90;;;;;;7378435;19;20313;-79
2022/04/14 02:35:30;;;;;;;6.38;5.78;;;8.90;99.90;;;;;;7377975;19;20333;-82
2022/04/14 02:37:59;;;;;;;6.13;5.38;;;8.80;99.90;;;;;;7358517;19;20305;-82
2022/04/14 02:40:30;;;;;;;7.13;5.55;;;8.90;99.90;;;;;;7375013;19;20337;-82
2022/04/14 02:43:02;;;;;;;7.20;5.90;;;8.70;99.90;;;;;;7373966;19;20325;-82
2022/04/14 02:45:33;;;;;;;6.80;5.80;;;8.80;99.90;;;;;;7343742;19;20332;-82
2022/04/14 02:48:10;;;;;;;7.28;5.90;;;8.70;99.90;;;;;;7340447;19;20324;-82
2022/04/14 03:02:00;;;;;;;7.05;6.18;;;8.60;99.90;;;;;;7370746;19;20806;-82
2022/04/14 03:04:30;;;;;;;9.77;6.47;;;8.60;99.90;;;;;;7368742;19;20391;-84
2022/04/14 03:07:04;;;;;;;8.88;6.03;;;8.50;99.90;;;;;;7370529;19;20348;-82
2022/04/14 03:09:31;;;;;;;7.20;5.80;;;8.40;99.90;;;;;;7352006;19;20676;-82
2022/04/14 03:11:59;;;;;;;7.25;6.13;;;8.40;99.90;;;;;;7377560;19;20309;-80
2022/04/14 03:14:28;;;;;;;7.47;5.95;;;8.40;99.90;;;;;;7375807;19;20325;-80
2022/04/14 03:16:57;;;;;;;8.60;6.38;;;8.30;99.90;;;;;;7377696;19;20328;-80
2022/04/14 03:19:25;;;;;;;6.55;5.57;;;8.30;99.90;;;;;;7379094;19;20300;-80
2022/04/14 03:21:52;;;;;;;6.70;5.80;;;8.20;99.90;;;;;;7357156;19;20401;-80
2022/04/14 03:24:20;;;;;;;8.43;5.88;;;8.20;99.90;;;;;;7365137;19;20335;-80
2022/04/14 03:26:47;;;;;;;8.25;6.10;;;8.10;99.90;;;;;;7385310;19;20348;-80
2022/04/14 03:29:14;;;;;;;8.82;6.07;;;8.10;99.90;;;;;;7381583;19;20340;-80
2022/04/14 03:31:42;;;;;;;7.20;5.70;;;8.10;99.90;;;;;;7363987;19;20316;-80
2022/04/14 03:34:08;;;;;;;9.57;6.45;;;8.10;99.90;;;;;;7374959;19;20414;-82
2022/04/14 03:36:35;;;;;;;6.80;6.13;;;8.10;99.90;;;;;;7374635;19;20305;-82
2022/04/14 03:39:01;;;;;;;7.13;5.93;;;8.00;99.90;;;;;;7376612;19;20373;-82
2022/04/14 03:41:28;;;;;;;8.07;6.32;;;8.00;99.90;;;;;;7402321;19;20377;-83
2022/04/14 03:43:55;;;;;;;7.80;6.25;;;7.90;99.90;;;;;;7384559;19;20321;-80
2022/04/14 03:46:22;;;;;;;8.25;6.20;;;7.90;99.90;;;;;;7378298;19;20317;-80
2022/04/14 03:48:49;;;;;;;6.65;5.90;;;7.70;99.90;;;;;;7374942;19;20344;-82
2022/04/14 03:51:18;;;;;;;7.10;5.87;;;7.80;99.90;;;;;;7341178;19;20344;-82
2022/04/14 03:53:45;;;;;;;8.00;5.97;;;7.80;99.90;;;;;;7367759;19;20383;-79
2022/04/14 03:56:12;;;;;;;8.93;6.07;;;7.80;99.90;;;;;;7367926;19;20346;-80
2022/04/14 03:58:38;;;;;;;8.00;6.35;;;7.70;99.90;;;;;;7377161;19;20330;-80
2022/04/14 04:01:04;;;;;;;9.20;6.18;;;7.70;99.90;;;;;;7372491;19;20367;-79
2022/04/14 04:03:31;;;;;;;7.55;6.38;;;7.60;99.90;;;;;;7350261;19;20343;-80
2022/04/14 04:05:58;;;;;;;7.22;6.22;;;7.50;99.90;;;;;;7368842;19;20318;-80
2022/04/14 04:08:24;;;;;;;7.90;6.20;;;7.40;99.90;;;;;;7366684;19;20750;-80
2022/04/14 04:10:52;;;;;;;7.85;5.82;;;7.40;99.90;;;;;;7376478;19;20361;-80
2022/04/14 04:13:19;;;;;;;7.30;6.13;;;7.40;99.90;;;;;;7369393;19;20929;-80
2022/04/14 04:15:46;;;;;;;7.07;6.25;;;7.40;99.90;;;;;;7383000;19;20352;-80
2022/04/14 04:18:12;;;;;;;7.53;6.00;;;7.30;99.90;;;;;;7377774;19;20362;-80
2022/04/14 04:20:39;;;;;;;6.68;5.97;;;7.30;99.90;;;;;;7363438;19;20883;-80
2022/04/14 04:23:07;;;;;;;6.63;5.77;;;7.20;99.90;;;;;;7363984;19;20358;-79
2022/04/14 04:25:34;;;;;;;6.55;5.63;;;7.20;99.90;;;;;;7366898;19;20898;-80
2022/04/14 04:28:01;;;;;;;8.27;5.95;;;7.10;99.90;;;;;;7373789;19;20745;-81
2022/04/14 04:30:27;;;;;;;8.57;6.07;;;7.10;99.90;;;;;;7357039;19;20313;-79
2022/04/14 04:32:55;;;;;;;7.43;6.07;;;7.10;99.90;;;;;;7382112;19;20309;-82
2022/04/14 04:35:26;;;;;;;6.97;5.90;;;7.20;99.90;;;;;;7335650;19;20327;-81
2022/04/14 04:37:55;;;;;;;6.45;5.70;;;7.20;99.90;;;;;;7364606;19;20344;-81
2022/04/14 04:40:26;;;;;;;7.32;5.70;;;7.20;99.90;;;;;;7340371;19;20388;-81
2022/04/14 04:42:59;;;;;;;8.15;6.07;;;7.20;99.90;;;;;;7348437;19;20339;-81
2022/04/14 04:45:31;;;;;;;5.88;5.28;;;7.30;99.90;;;;;;7338143;19;20340;-80
2022/04/14 04:48:08;;;;;;;6.03;5.37;;;7.20;99.90;;;;;;7237096;19;2004739;-80
2022/04/14 05:33:51;;;;;;;6.03;5.43;;;8.00;99.90;;;;;;7377748;19;20339;-80
2022/04/14 05:36:19;;;;;;;36.47;12.70;;;8.20;99.90;;;;;;7364358;19;20352;-80
2022/04/14 05:38:49;;;;;;;117.83;27.47;;;8.30;99.90;;;;;;7364138;19;20339;-83
2022/04/14 05:41:18;;;;;;;56.72;16.35;;;8.20;99.90;;;;;;7367339;19;20905;-83
2022/04/14 05:43:45;;;;;;;20.83;10.55;;;8.40;99.90;;;;;;7377521;19;20312;-83
2022/04/14 05:46:32;;;;;;;10.07;7.78;;;8.50;99.90;;;;;;7270913;19;2004058;-83
2022/04/14 05:48:59;;;;;;;9.25;7.47;;;8.60;99.90;;;;;;7362470;19;20896;-82
2022/04/14 06:53:25;;;;;;;9.10;5.80;;;12.30;99.90;;;;;;7279783;19;2004519;-85
2022/04/14 06:55:53;;;;;;;7.70;6.03;;;12.50;99.90;;;;;;7321037;19;20316;-85
2022/04/14 06:58:26;;;;;;;7.80;5.60;;;12.70;99.90;;;;;;7357447;19;20321;-82
2022/04/14 07:00:53;;;;;;;7.28;5.57;;;12.90;99.90;;;;;;7337648;19;20308;-84
2022/04/14 07:03:26;;;;;;;8.02;5.65;;;13.10;99.90;;;;;;7368631;19;20340;-82
2022/04/14 07:05:56;;;;;;;6.03;5.32;;;13.30;99.90;;;;;;7376089;19;20321;-81
2022/04/14 07:08:24;;;;;;;7.35;5.10;;;13.40;99.90;;;;;;7391372;19;20312;-83
2022/04/14 07:10:52;;;;;;;8.17;5.33;;;13.60;99.90;;;;;;7360825;19;20376;-82
2022/04/14 07:13:21;;;;;;;9.70;6.63;;;13.70;99.90;;;;;;7376789;19;20716;-86
2022/04/14 07:15:48;;;;;;;8.02;6.45;;;13.90;99.90;;;;;;7360453;19;20321;-85
2022/04/14 07:18:16;;;;;;;10.18;5.75;;;14.00;99.90;;;;;;7367914;19;20332;-86
2022/04/14 07:20:52;;;;;;;9.15;6.32;;;14.10;99.90;;;;;;7378612;19;20329;-84
2022/04/14 07:23:27;;;;;;;7.57;5.97;;;14.10;99.90;;;;;;7375456;19;22191;-86
2022/04/14 07:25:56;;;;;;;7.72;6.30;;;14.20;99.90;;;;;;7388661;19;20355;-84
2022/04/14 08:07:39;;;;;;;8.07;5.40;;;16.40;99.90;;;;;;7384281;19;20349;-89
2022/04/14 08:11:03;;;;;;;6.85;5.47;;;16.70;99.90;;;;;;7378418;19;20353;-86
2022/04/14 08:14:32;;;;;;;7.55;6.03;;;16.80;99.90;;;;;;7401115;19;20356;-86
2022/04/14 08:18:10;;;;;;;7.45;5.88;;;16.90;99.90;;;;;;7092909;19;2004657;-83
2022/04/14 08:20:56;;;;;;;7.53;6.17;;;17.10;99.90;;;;;;7331137;19;20439;-86
2022/04/14 08:27:47;;;;;;;9.35;6.43;;;17.20;99.90;;;;;;7402361;19;20381;-84
2022/04/14 08:30:40;;;;;;;7.78;5.80;;;17.30;99.90;;;;;;7375336;19;21383;-82
2022/04/14 08:33:10;;;;;;;7.75;5.75;;;17.40;99.90;;;;;;7346796;19;20304;-85
2022/04/14 08:35:38;;;;;;;9.98;6.10;;;17.60;99.90;;;;;;7379499;19;20316;-86
2022/04/14 08:38:07;;;;;;;8.60;5.33;;;17.70;99.90;;;;;;7389393;19;20618;-86
2022/04/14 08:40:35;;;;;;;7.50;5.10;;;17.80;99.90;;;;;;7396749;19;21195;-85
2022/04/14 08:43:02;;;;;;;7.93;5.60;;;17.80;99.90;;;;;;7403797;19;20385;-84
2022/04/14 08:45:33;;;;;;;9.80;5.80;;;17.80;99.90;;;;;;7406007;19;20421;-85
2022/04/14 08:48:00;;;;;;;10.35;5.57;;;17.70;99.90;;;;;;7408234;19;20831;-89
2022/04/14 08:50:26;;;;;;;7.72;5.47;;;17.60;99.90;;;;;;7394313;19;20339;-88
2022/04/14 08:52:52;;;;;;;8.50;5.70;;;17.70;99.90;;;;;;7398080;19;20323;-87
2022/04/14 08:55:19;;;;;;;9.70;5.70;;;17.70;99.90;;;;;;7389263;19;20304;-82
2022/04/14 08:57:45;;;;;;;7.72;6.03;;;17.80;99.90;;;;;;7394855;19;20327;-81
2022/04/14 09:00:12;;;;;;;8.68;6.28;;;17.90;99.90;;;;;;7393777;19;20316;-83
2022/04/14 09:02:38;;;;;;;8.70;5.40;;;17.90;99.90;;;;;;7390295;19;20979;-87
2022/04/14 09:05:05;;;;;;;7.03;5.28;;;18.20;99.90;;;;;;7394401;19;20894;-84
2022/04/14 09:08:26;;;;;;;6.68;5.32;;;18.40;99.90;;;;;;7411062;19;20329;-87
2022/04/14 09:12:07;;;;;;;6.50;5.57;;;18.60;99.90;;;;;;7190781;19;2004430;-87
2022/04/14 09:15:27;;;;;;;6.97;5.20;;;18.60;99.90;;;;;;7425293;19;20538;-87
2022/04/14 09:21:30;;;;;;;7.63;5.47;;;18.70;99.90;;;;;;7341865;19;20344;-87
2022/04/14 09:24:31;;;;;;;5.18;4.50;;;18.20;99.90;;;;;;7394364;19;20296;-83
2022/04/14 09:27:00;;;;;;;8.48;4.95;;;18.30;99.90;;;;;;7298730;19;2004207;-85
2022/04/14 09:29:26;;;;;;;5.03;4.30;;;18.50;99.90;;;;;;7397847;19;20324;-85
2022/04/14 09:31:54;;;;;;;7.30;4.93;;;18.90;99.90;;;;;;7345332;19;20412;-85
2022/04/14 09:34:50;;;;;;;6.32;4.95;;;19.30;99.90;;;;;;7393420;19;20313;-87
2022/04/14 09:37:32;;;;;;;6.07;4.95;;;19.70;99.90;;;;;;7105504;19;2004613;-82
2022/04/14 09:40:08;;;;;;;6.47;4.38;;;20.10;99.90;;;;;;7404796;19;20316;-83
2022/04/14 09:42:36;;;;;;;5.97;4.40;;;20.30;99.90;;;;;;7363497;19;20341;-86
2022/04/14 09:45:28;;;;;;;5.70;4.63;;;20.60;99.90;;;;;;7376772;19;20324;-82
2022/04/14 09:48:05;;;;;;;5.50;4.13;;;20.70;99.90;;;;;;7278068;19;2004206;-84
2022/04/14 09:50:39;;;;;;;7.13;5.00;;;20.90;99.90;;;;;;7287842;19;2004613;-82
2022/04/14 09:53:10;;;;;;;7.65;5.15;;;21.00;99.90;;;;;;7366808;19;21074;-86
2022/04/14 09:55:54;;;;;;;6.15;4.85;;;20.80;99.90;;;;;;7362783;19;20364;-87
2022/04/14 09:58:44;;;;;;;5.45;4.60;;;20.90;99.90;;;;;;7275505;19;2004445;-82
2022/04/14 10:01:19;;;;;;;8.68;5.18;;;20.90;99.90;;;;;;7366889;19;20315;-84
2022/04/14 10:03:45;;;;;;;7.30;5.13;;;20.90;99.90;;;;;;7379647;19;20355;-82
2022/04/14 10:06:13;;;;;;;7.75;5.38;;;21.10;99.90;;;;;;7387977;19;20324;-85
2022/04/14 10:08:51;;;;;;;8.38;6.15;;;20.80;99.10;;;;;;7396873;19;20574;-84
2022/04/14 10:12:15;;;;;;;7.15;6.05;;;20.30;99.10;;;;;;7374897;19;20414;-86
2022/04/14 12:18:49;;;;;;;8.30;3.72;;;23.40;92.20;;;;;;7405625;19;20358;-86
2022/04/14 12:21:21;;;;;;;5.00;3.42;;;23.40;93.60;;;;;;7286938;19;2004439;-87
2022/04/14 12:27:37;;;;;;;6.65;3.00;;;23.40;93.10;;;;;;7388681;19;20356;-87
2022/04/14 12:30:24;;;;;;;5.13;2.78;;;23.60;93.40;;;;;;7379074;19;20324;-88
2022/04/14 12:33:05;;;;;;;3.20;2.58;;;23.20;91.90;;;;;;7396184;19;20347;-84
2022/04/14 12:35:44;;;;;;;4.32;2.63;;;22.70;92.70;;;;;;7389503;19;20363;-85
2022/04/14 12:39:06;;;;;;;4.37;2.90;;;23.00;93.10;;;;;;7264803;19;2004365;-85
2022/04/14 12:42:19;;;;;;;3.25;2.88;;;23.10;93.10;;;;;;7277954;19;2004255;-88
2022/04/14 12:45:22;;;;;;;4.00;3.50;;;23.00;93.30;;;;;;7299530;19;2004621;-86
2022/04/14 12:47:55;;;;;;;3.97;3.45;;;21.80;94.20;;;;;;7358566;19;20346;-82
2022/04/14 12:50:23;;;;;;;6.20;3.70;;;21.60;95.20;;;;;;7387730;19;21328;-85
2022/04/14 12:52:56;;;;;;;5.18;3.38;;;21.20;96.60;;;;;;7365406;19;20324;-85
2022/04/14 12:55:27;;;;;;;5.00;3.65;;;21.40;97.30;;;;;;7379155;19;20348;-82
2022/04/14 12:58:12;;;;;;;5.22;3.75;;;21.60;97.30;;;;;;7384178;19;20333;-82
2022/04/14 13:00:38;;;;;;;4.97;3.20;;;21.80;96.30;;;;;;7278539;19;2004228;-83
2022/04/14 13:03:05;;;;;;;4.32;3.13;;;22.40;97.40;;;;;;7391190;19;20348;-82
2022/04/14 13:05:37;;;;;;;2.90;2.55;;;22.70;94.70;;;;;;7362381;19;20364;-85
2022/04/14 13:08:03;;;;;;;2.60;2.37;;;23.10;96.00;;;;;;7339817;19;20324;-87
2022/04/14 13:10:53;;;;;;;3.15;2.53;;;23.20;95.30;;;;;;7369981;19;20290;-87
2022/04/14 13:13:34;;;;;;;3.47;2.20;;;23.40;95.10;;;;;;7333144;19;20316;-87
2022/04/14 13:16:01;;;;;;;2.37;2.17;;;23.40;94.00;;;;;;7374854;19;20363;-85
2022/04/14 13:18:31;;;;;;;3.13;2.30;;;22.60;93.70;;;;;;7360119;19;20292;-86
2022/04/14 13:20:58;;;;;;;2.50;2.30;;;22.40;95.80;;;;;;7235915;19;2004466;-83
2022/04/14 13:23:25;;;;;;;2.53;2.30;;;22.90;94.50;;;;;;7388689;19;20308;-84
2022/04/14 13:26:17;;;;;;;2.05;1.95;;;22.80;92.10;;;;;;7359831;19;20328;-87
2022/04/14 13:28:45;;;;;;;2.72;2.03;;;22.80;94.30;;;;;;7373214;19;20399;-86
2022/04/14 13:31:12;;;;;;;2.22;1.90;;;22.90;94.40;;;;;;7333611;19;20308;-84
2022/04/14 13:33:37;;;;;;;3.13;2.05;;;23.50;94.90;;;;;;7397323;19;20320;-86
2022/04/14 13:36:09;;;;;;;2.33;1.80;;;23.70;93.30;;;;;;7317281;19;20339;-90
2022/04/14 13:38:42;;;;;;;2.37;1.87;;;22.90;92.90;;;;;;7347122;19;20308;-89
2022/04/14 13:41:13;;;;;;;4.60;1.80;;;22.70;93.10;;;;;;7399866;19;20364;-88
2022/04/14 13:44:34;;;;;;;5.05;2.08;;;23.10;94.10;;;;;;7415881;19;20365;-89
2022/04/14 13:48:26;;;;;;;1.52;1.42;;;23.50;93.60;;;;;;7389799;19;20347;-89
2022/04/14 13:53:54;;;;;;;1.70;1.60;;;23.10;94.30;;;;;;7387107;19;20349;-85
2022/04/14 13:56:20;;;;;;;1.40;1.30;;;22.60;94.50;;;;;;7367756;19;20337;-86
2022/04/14 13:58:47;;;;;;;1.58;1.40;;;22.60;94.70;;;;;;7395219;19;20316;-85
2022/04/14 14:01:13;;;;;;;1.70;1.40;;;22.40;94.80;;;;;;7384351;19;20339;-81
2022/04/14 14:03:40;;;;;;;1.70;1.50;;;21.40;94.50;;;;;;7387913;19;20309;-83
2022/04/14 14:06:05;;;;;;;2.13;1.33;;;21.20;95.70;;;;;;7395409;19;20332;-84
2022/04/14 14:08:37;;;;;;;3.03;1.35;;;20.70;96.20;;;;;;7391048;19;20305;-86
2022/04/14 14:11:05;;;;;;;1.63;1.40;;;20.70;96.80;;;;;;7369784;19;20339;-86
2022/04/14 14:13:51;;;;;;;1.58;1.48;;;20.80;97.30;;;;;;7328879;19;20324;-89
2022/04/14 14:19:51;;;;;;;1.40;1.30;;;20.80;97.60;;;;;;7418607;19;20390;-90
2022/04/14 14:22:28;;;;;;;1.80;1.40;;;20.80;97.60;;;;;;7379857;19;20324;-87
2022/04/14 14:25:38;;;;;;;1.40;1.30;;;20.70;97.40;;;;;;7385501;19;20639;-87
2022/04/14 14:29:05;;;;;;;1.58;1.45;;;20.60;97.70;;;;;;7279189;19;2004416;-84
2022/04/14 14:31:33;;;;;;;2.67;2.47;;;20.40;98.50;;;;;;7386132;19;20344;-82
2022/04/14 14:34:25;;;;;;;2.70;2.15;;;20.60;98.70;;;;;;7257261;19;2004305;-83
2022/04/14 14:37:15;;;;;;;1.45;1.38;;;20.60;98.30;;;;;;7357363;19;20342;-84
2022/04/14 14:40:02;;;;;;;1.70;1.60;;;20.70;98.70;;;;;;7383311;19;20406;-83
2022/04/14 14:42:41;;;;;;;1.40;1.30;;;20.70;99.20;;;;;;7255305;19;2004190;-86
2022/04/14 14:45:16;;;;;;;1.80;1.65;;;20.70;98.90;;;;;;7329347;19;20357;-86
2022/04/14 14:47:46;;;;;;;10.15;8.52;;;20.30;99.40;;;;;;7279543;19;2004198;-82
2022/04/14 14:50:26;;;;;;;4.45;3.22;;;20.20;99.90;;;;;;7380691;19;20325;-86
2022/04/14 14:53:08;;;;;;;1.70;1.60;;;19.90;99.90;;;;;;7392475;19;20411;-85
2022/04/14 14:56:16;;;;;;;2.25;1.77;;;19.60;99.90;;;;;;7408702;19;20343;-85
2022/04/14 15:01:36;;;;;;;2.55;1.77;;;19.40;99.90;;;;;;7296059;19;2004332;-82
2022/04/14 15:04:04;;;;;;;3.07;1.60;;;19.00;99.90;;;;;;7339705;19;20838;-84
2022/04/14 15:06:31;;;;;;;1.42;1.33;;;18.90;99.90;;;;;;7403366;19;20311;-84
2022/04/14 15:08:59;;;;;;;2.65;1.88;;;18.90;99.90;;;;;;7381047;19;20796;-82
2022/04/14 15:11:27;;;;;;;2.30;2.10;;;18.90;99.90;;;;;;7393538;19;20305;-81
2022/04/14 15:13:56;;;;;;;2.92;1.55;;;18.70;99.90;;;;;;7349956;19;20315;-81
2022/04/14 15:16:27;;;;;;;3.92;1.50;;;18.40;99.90;;;;;;7404856;19;20384;-82
2022/04/14 15:19:22;;;;;;;1.60;1.50;;;18.30;99.90;;;;;;7318294;19;20350;-83
2022/04/14 15:21:48;;;;;;;1.60;1.50;;;18.00;99.90;;;;;;7283919;19;2004223;-84
2022/04/14 15:24:15;;;;;;;1.40;1.20;;;17.70;99.90;;;;;;7398084;19;20319;-82
2022/04/14 15:27:04;;;;;;;2.75;2.35;;;17.80;99.90;;;;;;7386698;19;20329;-83
2022/04/14 15:30:03;;;;;;;1.95;1.40;;;17.50;99.90;;;;;;7310860;19;2004374;-82
2022/04/14 15:32:30;;;;;;;2.40;1.60;;;17.30;99.90;;;;;;7408027;19;21341;-78
2022/04/14 15:34:56;;;;;;;1.42;1.33;;;17.30;99.90;;;;;;7382326;19;20313;-81
2022/04/14 15:37:22;;;;;;;15.37;12.47;;;17.10;99.90;;;;;;7381756;19;20312;-78
2022/04/14 15:39:47;;;;;;;1.83;1.73;;;17.30;99.90;;;;;;7381324;19;20339;-80
2022/04/14 15:42:13;;;;;;;2.90;1.70;;;17.30;99.90;;;;;;7380667;19;20456;-78
2022/04/14 15:44:39;;;;;;;3.20;2.90;;;17.20;99.90;;;;;;7384212;19;20334;-76
2022/04/14 15:47:05;;;;;;;1.70;1.30;;;17.10;99.90;;;;;;7385346;19;20869;-77
2022/04/14 15:49:31;;;;;;;3.92;2.10;;;17.00;99.90;;;;;;7383734;19;20328;-80
2022/04/14 15:51:56;;;;;;;1.77;1.13;;;17.00;99.90;;;;;;7378143;19;20361;-75
2022/04/14 15:54:22;;;;;;;1.65;1.55;;;17.00;99.90;;;;;;7381791;19;20454;-79
2022/04/14 15:56:48;;;;;;;3.13;2.10;;;17.00;99.90;;;;;;7381190;19;20343;-77
2022/04/14 15:59:13;;;;;;;1.90;1.70;;;17.00;99.90;;;;;;7380499;19;20329;-76
2022/04/14 16:01:39;;;;;;;2.78;2.00;;;17.00;99.90;;;;;;7377854;19;20316;-80
2022/04/14 16:04:04;;;;;;;1.33;1.23;;;17.00;99.90;;;;;;7372663;19;21015;-77
2022/04/14 16:06:30;;;;;;;1.80;1.50;;;16.90;99.90;;;;;;7381474;19;20319;-80
2022/04/14 16:08:56;;;;;;;1.50;1.40;;;16.80;99.90;;;;;;7380925;19;20364;-78
2022/04/14 16:14:06;;;;;;;1.30;1.20;;;16.70;99.90;;;;;;7381891;19;20343;-78
2022/04/14 16:16:31;;;;;;;2.50;1.60;;;16.40;99.90;;;;;;7381821;19;20321;-76
2022/04/14 16:18:57;;;;;;;1.30;1.20;;;16.30;99.90;;;;;;7388831;19;20654;-78
2022/04/14 16:21:23;;;;;;;1.40;1.30;;;16.20;99.90;;;;;;7385677;19;20377;-79
2022/04/14 16:23:49;;;;;;;1.20;1.20;;;16.00;99.90;;;;;;7386395;19;20348;-77
2022/04/14 16:26:16;;;;;;;1.00;1.00;;;16.10;99.90;;;;;;7388851;19;20365;-78
2022/04/14 16:28:41;;;;;;;1.13;1.02;;;16.10;99.90;;;;;;7391170;19;22217;-82
2022/04/14 16:31:07;;;;;;;1.35;1.23;;;16.00;99.90;;;;;;7389629;19;20320;-78
2022/04/14 16:33:32;;;;;;;1.43;1.30;;;15.80;99.90;;;;;;7386507;19;20659;-79
2022/04/14 16:35:58;;;;;;;2.65;1.40;;;16.00;99.90;;;;;;7388368;19;20926;-80
2022/04/14 16:38:24;;;;;;;1.67;1.30;;;15.80;99.90;;;;;;7382421;19;20321;-77
2022/04/14 16:40:49;;;;;;;1.67;1.33;;;15.90;99.90;;;;;;7382174;19;20348;-77
2022/04/14 16:43:15;;;;;;;2.00;1.60;;;15.90;99.90;;;;;;7385263;19;20365;-78
2022/04/14 16:45:41;;;;;;;2.30;1.77;;;15.80;99.90;;;;;;7386714;19;20321;-79
2022/04/14 16:48:07;;;;;;;1.60;1.50;;;15.60;99.90;;;;;;7383232;19;20867;-78
2022/04/14 16:50:33;;;;;;;1.52;1.35;;;15.60;99.90;;;;;;7389420;19;20876;-78
2022/04/14 16:52:58;;;;;;;1.57;1.40;;;15.30;99.90;;;;;;7385603;19;20341;-80
2022/04/14 16:55:24;;;;;;;1.23;1.15;;;15.20;99.90;;;;;;7385910;19;21262;-79
2022/04/14 16:57:51;;;;;;;1.30;1.20;;;15.20;99.90;;;;;;7386659;19;20338;-79
2022/04/14 17:00:18;;;;;;;1.40;1.30;;;15.20;99.90;;;;;;7391671;19;20331;-78
2022/04/14 17:02:44;;;;;;;1.50;1.40;;;15.20;99.90;;;;;;7387394;19;20755;-80
2022/04/14 17:05:09;;;;;;;2.08;1.45;;;15.20;99.90;;;;;;7372186;19;20320;-79
2022/04/14 17:07:35;;;;;;;2.10;1.90;;;15.10;99.90;;;;;;7390941;19;20461;-79
2022/04/14 17:10:04;;;;;;;1.95;1.63;;;14.90;99.90;;;;;;7387723;19;20336;-78
2022/04/14 17:12:30;;;;;;;1.70;1.60;;;14.70;99.90;;;;;;7389269;19;20304;-78
2022/04/14 17:14:56;;;;;;;1.80;1.50;;;14.70;99.90;;;;;;7388229;19;20353;-78
2022/04/14 17:17:21;;;;;;;1.53;1.40;;;14.70;99.90;;;;;;7390533;19;20309;-78
2022/04/14 17:19:47;;;;;;;2.17;1.95;;;14.70;99.90;;;;;;7393438;19;20351;-81
2022/04/14 17:24:57;;;;;;;2.72;2.50;;;14.60;99.90;;;;;;7392266;19;20387;-77
2022/04/14 17:27:23;;;;;;;2.42;2.22;;;14.60;99.90;;;;;;7386977;19;20313;-78
2022/04/14 17:29:49;;;;;;;2.93;2.23;;;14.60;99.90;;;;;;7378688;19;20813;-75
2022/04/14 17:32:15;;;;;;;1.90;1.80;;;14.60;99.90;;;;;;7375008;19;20392;-78
2022/04/14 17:34:41;;;;;;;2.08;1.90;;;14.40;99.90;;;;;;7381794;19;20320;-76
2022/04/14 17:37:06;;;;;;;2.40;2.17;;;14.50;99.90;;;;;;7362325;19;20367;-80
2022/04/14 17:39:32;;;;;;;3.20;2.00;;;14.40;99.90;;;;;;7384827;19;20328;-77
2022/04/14 17:41:58;;;;;;;2.20;2.00;;;14.40;99.90;;;;;;7383367;19;20301;-78
2022/04/14 17:44:25;;;;;;;2.40;2.20;;;14.40;99.90;;;;;;7385819;19;20320;-80
2022/04/14 17:46:51;;;;;;;1.90;1.80;;;14.30;99.90;;;;;;7386945;19;20312;-80
2022/04/14 17:49:17;;;;;;;2.40;2.20;;;14.20;99.90;;;;;;7390262;19;20864;-78
2022/04/14 17:51:43;;;;;;;1.90;1.80;;;14.20;99.90;;;;;;7383768;19;21700;-77
2022/04/14 17:54:08;;;;;;;2.20;2.08;;;14.10;99.90;;;;;;7384361;19;20312;-79
2022/04/14 17:56:34;;;;;;;2.58;2.38;;;14.20;99.90;;;;;;7385367;19;20372;-78
2022/04/14 17:59:00;;;;;;;2.70;2.50;;;14.20;99.90;;;;;;7387335;19;20352;-77
2022/04/14 18:01:25;;;;;;;2.50;2.30;;;13.90;99.90;;;;;;7383512;19;20360;-77
2022/04/14 18:03:51;;;;;;;2.30;2.10;;;14.00;99.90;;;;;;7383376;19;20344;-78
2022/04/14 18:06:17;;;;;;;3.27;2.90;;;14.00;99.90;;;;;;7387466;19;20305;-79
2022/04/14 18:08:44;;;;;;;4.93;3.38;;;13.90;99.90;;;;;;7385739;19;20317;-77
2022/04/14 18:11:09;;;;;;;3.90;2.60;;;14.00;99.90;;;;;;7383211;19;20345;-81
2022/04/14 18:13:35;;;;;;;2.50;2.30;;;14.00;99.90;;;;;;7384917;19;20331;-80
2022/04/14 18:16:01;;;;;;;4.43;2.83;;;14.00;99.90;;;;;;7384676;19;20308;-79
2022/04/14 18:18:26;;;;;;;3.43;3.13;;;14.00;99.90;;;;;;7387644;19;20392;-79
2022/04/14 18:20:52;;;;;;;3.83;2.90;;;14.00;99.90;;;;;;7388073;19;20337;-80
2022/04/14 18:23:18;;;;;;;5.28;4.00;;;14.00;99.90;;;;;;7383938;19;20434;-78
2022/04/14 18:25:44;;;;;;;2.67;2.47;;;13.80;99.90;;;;;;7385091;19;20357;-82
2022/04/14 18:28:10;;;;;;;2.63;2.42;;;13.80;99.90;;;;;;7386265;19;20353;-80
2022/04/14 18:30:35;;;;;;;2.10;1.90;;;13.80;99.90;;;;;;7383595;19;20301;-77
2022/04/14 18:33:01;;;;;;;2.50;2.30;;;13.80;99.90;;;;;;7382978;19;20356;-79
2022/04/14 18:35:27;;;;;;;3.50;3.03;;;13.70;99.90;;;;;;7384241;19;20316;-76
2022/04/14 18:37:53;;;;;;;3.53;3.00;;;13.70;99.90;;;;;;7384771;19;20363;-81
2022/04/14 18:40:18;;;;;;;3.22;2.92;;;13.70;99.90;;;;;;7386632;19;21003;-77
2022/04/14 18:42:45;;;;;;;2.40;2.20;;;13.70;99.90;;;;;;7375784;19;20390;-80
2022/04/14 18:45:11;;;;;;;2.03;1.92;;;13.70;99.90;;;;;;7382185;19;20350;-76
2022/04/14 18:47:37;;;;;;;2.60;2.40;;;13.80;99.90;;;;;;7384662;19;20332;-79
2022/04/14 18:50:04;;;;;;;2.65;2.30;;;13.80;99.90;;;;;;7381192;19;20971;-77
2022/04/14 18:52:29;;;;;;;2.75;2.47;;;13.60;99.90;;;;;;7382908;19;20412;-78
2022/04/14 19:00:22;;;;;;;1.80;1.70;;;13.50;99.90;;;;;;7361993;19;20364;-76
2022/04/14 19:02:47;;;;;;;1.88;1.77;;;13.40;99.90;;;;;;7365101;19;20336;-77
2022/04/14 19:05:13;;;;;;;2.40;2.20;;;13.40;99.90;;;;;;7381072;19;20336;-75
2022/04/14 19:07:40;;;;;;;4.97;3.55;;;13.40;99.90;;;;;;7380017;19;20359;-75
2022/04/14 19:10:06;;;;;;;4.25;3.75;;;13.30;99.90;;;;;;7383183;19;20357;-77
2022/04/14 19:12:31;;;;;;;3.30;3.00;;;13.20;99.90;;;;;;7397140;19;20406;-76
2022/04/14 19:14:57;;;;;;;4.73;3.97;;;13.20;99.90;;;;;;7396389;19;20881;-75
2022/04/14 19:17:23;;;;;;;3.80;3.15;;;13.20;99.90;;;;;;7392049;19;20338;-75
2022/04/14 19:19:49;;;;;;;3.80;2.97;;;13.10;99.90;;;;;;7402638;19;20333;-76
2022/04/14 19:22:19;;;;;;;3.17;2.88;;;13.10;99.90;;;;;;7398340;19;20293;-76
2022/04/14 19:24:50;;;;;;;2.70;2.50;;;12.90;99.90;;;;;;7392636;19;20332;-76
2022/04/14 19:27:16;;;;;;;2.80;2.50;;;12.90;99.90;;;;;;7394207;19;20332;-76
2022/04/14 19:29:45;;;;;;;2.38;2.10;;;12.90;99.90;;;;;;7393529;19;20305;-77
2022/04/14 19:32:11;;;;;;;2.30;2.10;;;12.90;99.90;;;;;;7390186;19;20320;-81
2022/04/14 19:34:37;;;;;;;5.20;4.65;;;12.80;99.90;;;;;;7390125;19;20879;-78
2022/04/14 19:37:04;;;;;;;4.23;3.40;;;12.80;99.90;;;;;;7388208;19;20309;-77
2022/04/14 19:39:30;;;;;;;2.17;2.00;;;12.80;99.90;;;;;;7386675;19;20673;-75
2022/04/14 19:41:57;;;;;;;2.50;2.30;;;12.80;99.90;;;;;;7389036;19;20353;-78
2022/04/14 19:44:23;;;;;;;2.40;2.10;;;12.80;99.90;;;;;;7390899;19;20312;-81
2022/04/14 19:46:49;;;;;;;7.93;6.57;;;12.80;99.90;;;;;;7395144;19;20342;-76
2022/04/14 19:49:15;;;;;;;3.63;3.33;;;12.70;99.90;;;;;;7390367;19;20341;-84
2022/04/14 19:51:40;;;;;;;3.00;2.70;;;12.70;99.90;;;;;;7388755;19;20369;-81
2022/04/14 19:54:08;;;;;;;3.30;3.00;;;12.70;99.90;;;;;;7384259;19;20345;-75
2022/04/14 19:56:33;;;;;;;2.53;2.33;;;12.70;99.90;;;;;;7386018;19;20323;-78
2022/04/14 19:58:59;;;;;;;2.55;2.30;;;12.60;99.90;;;;;;7386997;19;20308;-80
2022/04/14 20:01:24;;;;;;;2.37;2.17;;;12.40;99.90;;;;;;7382242;19;20730;-79
2022/04/14 20:03:50;;;;;;;2.50;2.30;;;12.40;99.90;;;;;;7380982;19;20348;-83
2022/04/14 20:06:16;;;;;;;4.20;2.10;;;12.30;99.90;;;;;;7386525;19;20661;-76
2022/04/14 20:08:41;;;;;;;2.63;2.42;;;12.30;99.90;;;;;;7385551;19;21221;-78
2022/04/14 20:11:07;;;;;;;2.80;2.10;;;12.20;99.90;;;;;;7385625;19;20325;-82
2022/04/14 20:13:33;;;;;;;2.53;2.33;;;12.10;99.90;;;;;;7384058;19;20345;-79
2022/04/14 20:15:59;;;;;;;2.40;2.20;;;12.10;99.90;;;;;;7384483;19;20404;-75
2022/04/14 20:18:27;;;;;;;2.90;2.60;;;12.00;99.90;;;;;;7386299;19;20308;-76
2022/04/14 20:20:53;;;;;;;2.60;2.40;;;12.00;99.90;;;;;;7378914;19;20324;-76